createdAt,value
2022-10-26T00:01:15.798Z,13.20
2022-10-26T00:03:45.588Z,13.20
2022-10-26T00:06:15.528Z,13.20
2022-10-26T00:08:43.980Z,13.10
2022-10-26T00:11:14.353Z,13.10
2022-10-26T00:13:42.969Z,13.10
2022-10-26T00:16:13.206Z,13.10
2022-10-26T00:18:41.486Z,13.10
2022-10-26T00:21:11.620Z,13.10
2022-10-26T00:23:40.062Z,13.10
2022-10-26T00:26:09.010Z,13.10
2022-10-26T00:28:38.940Z,13.10
2022-10-26T00:31:15.448Z,13.00
2022-10-26T00:33:43.936Z,13.10
2022-10-26T00:36:13.872Z,13.00
2022-10-26T00:38:45.832Z,13.00
2022-10-26T00:41:16.232Z,13.00
2022-10-26T00:43:45.861Z,12.90
2022-10-26T00:46:17.772Z,12.90
2022-10-26T00:48:49.369Z,12.90
2022-10-26T00:51:25.367Z,12.90
2022-10-26T00:53:54.764Z,12.90
2022-10-26T00:56:23.297Z,12.90
2022-10-26T00:58:53.199Z,13.00
2022-10-26T01:01:21.451Z,13.00
2022-10-26T01:03:50.423Z,13.00
2022-10-26T01:06:18.952Z,13.00
2022-10-26T01:08:48.469Z,12.90
2022-10-26T01:11:17.232Z,12.90
2022-10-26T01:13:47.098Z,12.90
2022-10-26T01:16:38.335Z,12.90
2022-10-26T01:19:37.007Z,12.90
2022-10-26T01:22:09.543Z,12.90
2022-10-26T01:24:55.321Z,12.90
2022-10-26T01:27:31.546Z,12.90
2022-10-26T01:30:26.373Z,12.90
2022-10-26T01:33:20.343Z,12.90
2022-10-26T01:35:56.054Z,12.90
2022-10-26T01:38:31.944Z,12.80
2022-10-26T01:41:07.516Z,12.80
2022-10-26T01:43:40.366Z,12.80
2022-10-26T01:46:11.717Z,12.80
2022-10-26T01:48:42.162Z,12.90
2022-10-26T01:51:12.462Z,12.90
2022-10-26T01:53:45.807Z,12.90
2022-10-26T01:56:19.647Z,12.90
2022-10-26T01:59:21.852Z,12.80
2022-10-26T02:02:26.734Z,12.80
2022-10-26T02:05:11.597Z,12.80
2022-10-26T02:07:51.761Z,12.80
2022-10-26T02:10:31.686Z,12.70
2022-10-26T02:13:08.155Z,12.80
2022-10-26T02:15:44.296Z,12.80
2022-10-26T02:18:24.612Z,12.80
2022-10-26T02:20:56.361Z,12.80
2022-10-26T02:23:27.607Z,12.80
2022-10-26T02:25:59.788Z,12.80
2022-10-26T02:28:34.142Z,12.70
2022-10-26T02:31:04.989Z,12.70
2022-10-26T02:33:39.262Z,12.70
2022-10-26T02:36:12.275Z,12.70
2022-10-26T02:38:42.619Z,12.70
2022-10-26T02:41:14.108Z,12.70
2022-10-26T02:43:46.538Z,12.70
2022-10-26T02:46:17.960Z,12.70
2022-10-26T02:48:47.812Z,12.70
2022-10-26T02:51:21.312Z,12.70
2022-10-26T02:53:55.092Z,12.70
2022-10-26T02:56:29.222Z,12.70
2022-10-26T02:59:03.428Z,12.70
2022-10-26T03:01:33.573Z,12.70
2022-10-26T03:04:03.249Z,12.70
2022-10-26T03:06:31.348Z,12.70
2022-10-26T03:08:59.531Z,12.70
2022-10-26T03:11:27.840Z,12.70
2022-10-26T03:13:56.342Z,12.70
2022-10-26T03:16:24.381Z,12.70
2022-10-26T03:18:52.689Z,12.80
2022-10-26T03:21:22.130Z,12.70
2022-10-26T03:23:50.541Z,12.70
2022-10-26T03:26:18.655Z,12.70
2022-10-26T03:28:46.730Z,12.80
2022-10-26T03:31:14.849Z,12.80
2022-10-26T03:33:43.076Z,12.80
2022-10-26T03:36:11.596Z,12.80
2022-10-26T03:38:41.061Z,12.80
2022-10-26T03:41:09.197Z,12.80
2022-10-26T03:43:37.733Z,12.80
2022-10-26T03:46:05.861Z,12.80
2022-10-26T03:48:33.929Z,12.70
2022-10-26T03:51:01.964Z,12.70
2022-10-26T03:53:30.082Z,12.70
2022-10-26T03:55:59.532Z,12.70
2022-10-26T03:58:27.667Z,12.80
2022-10-26T04:00:55.825Z,12.80
2022-10-26T04:03:24.216Z,13.00
2022-10-26T04:05:52.321Z,13.00
2022-10-26T04:08:20.368Z,13.00
2022-10-26T04:10:48.790Z,13.10
2022-10-26T04:13:18.270Z,13.10
2022-10-26T04:15:46.956Z,13.10
2022-10-26T04:18:15.065Z,13.10
2022-10-26T04:20:43.237Z,13.10
2022-10-26T04:23:14.486Z,13.10
2022-10-26T04:25:43.850Z,13.10
2022-10-26T04:28:13.840Z,13.00
2022-10-26T04:30:43.287Z,13.00
2022-10-26T04:33:11.614Z,13.00
2022-10-26T04:35:39.823Z,13.00
2022-10-26T04:38:08.881Z,13.00
2022-10-26T04:40:37.560Z,13.00
2022-10-26T04:43:05.644Z,12.90
2022-10-26T04:45:33.724Z,12.90
2022-10-26T04:48:05.930Z,12.90
2022-10-26T04:50:34.987Z,12.80
2022-10-26T04:53:09.982Z,12.80
2022-10-26T04:55:40.783Z,12.80
2022-10-26T04:58:09.079Z,12.70
2022-10-26T05:00:37.482Z,12.60
2022-10-26T05:03:08.634Z,12.60
2022-10-26T05:05:37.822Z,12.60
2022-10-26T05:08:06.331Z,12.50
2022-10-26T05:10:34.730Z,12.50
2022-10-26T05:13:02.971Z,12.50
2022-10-26T05:15:31.433Z,12.60
2022-10-26T05:18:01.245Z,12.60
2022-10-26T05:20:33.605Z,12.60
2022-10-26T05:23:06.838Z,12.60
2022-10-26T05:25:37.461Z,12.60
2022-10-26T05:28:07.987Z,12.60
2022-10-26T05:30:36.561Z,12.60
2022-10-26T05:33:05.074Z,12.60
2022-10-26T05:35:35.115Z,12.60
2022-10-26T05:38:08.933Z,12.70
2022-10-26T05:40:37.493Z,12.70
2022-10-26T05:43:05.739Z,12.70
2022-10-26T05:45:33.962Z,12.70
2022-10-26T05:48:03.173Z,12.70
2022-10-26T05:50:32.366Z,12.80
2022-10-26T05:53:01.917Z,12.80
2022-10-26T05:55:30.936Z,12.80
2022-10-26T05:57:59.610Z,12.80
2022-10-26T06:00:29.999Z,12.80
2022-10-26T06:03:13.096Z,12.80
2022-10-26T06:05:51.822Z,12.80
2022-10-26T06:08:22.650Z,12.80
2022-10-26T06:10:52.189Z,12.90
2022-10-26T06:13:21.152Z,12.90
2022-10-26T06:16:05.049Z,13.00
2022-10-26T06:18:49.401Z,13.10
2022-10-26T06:21:30.518Z,13.10
2022-10-26T06:24:07.144Z,13.20
2022-10-26T06:26:42.686Z,13.20
2022-10-26T06:29:25.922Z,13.30
2022-10-26T06:31:54.031Z,13.30
2022-10-26T06:34:27.334Z,13.40
2022-10-26T06:36:58.766Z,13.40
2022-10-26T06:39:31.449Z,13.30
2022-10-26T06:42:00.179Z,13.20
2022-10-26T06:44:28.977Z,13.10
2022-10-26T06:47:04.425Z,13.10
2022-10-26T06:49:37.317Z,13.10
2022-10-26T06:52:14.497Z,13.20
2022-10-26T06:54:51.291Z,13.20
2022-10-26T06:57:21.399Z,13.20
2022-10-26T06:59:52.703Z,13.30
2022-10-26T07:02:21.444Z,13.20
2022-10-26T07:04:49.960Z,13.20
2022-10-26T07:07:21.040Z,13.10
2022-10-26T07:09:50.848Z,13.20
2022-10-26T07:12:19.309Z,13.20
2022-10-26T07:14:48.001Z,13.30
2022-10-26T07:17:16.983Z,13.40
2022-10-26T07:19:45.648Z,13.40
2022-10-26T07:22:14.152Z,13.50
2022-10-26T07:24:42.587Z,13.50
2022-10-26T07:27:14.118Z,13.50
2022-10-26T07:29:42.750Z,13.60
2022-10-26T07:32:10.822Z,13.60
2022-10-26T07:34:38.888Z,13.60
2022-10-26T07:37:07.333Z,13.70
2022-10-26T07:39:35.450Z,13.70
2022-10-26T07:42:03.594Z,13.70
2022-10-26T07:44:33.287Z,13.80
2022-10-26T07:47:01.559Z,13.80
2022-10-26T07:49:29.879Z,13.90
2022-10-26T07:51:58.087Z,13.90
2022-10-26T07:54:26.442Z,13.90
2022-10-26T07:56:54.608Z,13.90
2022-10-26T07:59:22.811Z,13.90
2022-10-26T08:01:52.420Z,14.00
2022-10-26T08:04:20.594Z,14.00
2022-10-26T08:06:48.895Z,14.00
2022-10-26T08:09:17.207Z,14.10
2022-10-26T08:11:45.694Z,14.10
2022-10-26T08:14:14.190Z,14.10
2022-10-26T08:16:42.554Z,14.20
2022-10-26T08:19:12.284Z,14.30
2022-10-26T08:21:40.832Z,14.40
2022-10-26T08:24:09.764Z,14.40
2022-10-26T08:26:38.051Z,14.40
2022-10-26T08:29:06.419Z,14.50
2022-10-26T08:31:34.693Z,14.50
2022-10-26T08:34:04.424Z,14.60
2022-10-26T08:36:34.265Z,14.70
2022-10-26T08:39:02.921Z,14.80
2022-10-26T08:41:47.195Z,15.00
2022-10-26T08:44:25.442Z,15.20
2022-10-26T08:47:01.776Z,15.40
2022-10-26T08:49:42.459Z,15.60
2022-10-26T08:52:16.712Z,15.70
2022-10-26T08:54:50.491Z,15.80
2022-10-26T08:57:25.407Z,15.80
2022-10-26T09:00:00.439Z,15.90
2022-10-26T09:02:29.440Z,16.00
2022-10-26T09:05:00.548Z,16.20
2022-10-26T09:07:41.316Z,16.30
2022-10-26T09:13:01.498Z,16.40
2022-10-26T09:15:39.967Z,16.50
2022-10-26T09:18:18.713Z,16.60
2022-10-26T09:21:07.730Z,16.70
2022-10-26T09:23:56.652Z,17.00
2022-10-26T09:26:36.180Z,17.20
2022-10-26T09:29:08.580Z,17.20
2022-10-26T09:31:43.792Z,17.30
2022-10-26T09:34:24.870Z,17.30
2022-10-26T09:36:56.685Z,17.30
2022-10-26T09:39:36.997Z,17.20
2022-10-26T09:42:16.401Z,17.10
2022-10-26T09:44:51.630Z,17.00
2022-10-26T09:47:34.363Z,17.00
2022-10-26T09:50:08.623Z,17.00
2022-10-26T09:52:36.905Z,16.90
2022-10-26T09:55:07.568Z,16.90
2022-10-26T09:57:36.324Z,17.00
2022-10-26T10:00:05.984Z,16.80
2022-10-26T10:02:39.914Z,17.00
2022-10-26T10:05:45.755Z,17.10
2022-10-26T10:08:18.816Z,17.30
2022-10-26T10:11:00.733Z,17.40
2022-10-26T10:13:32.499Z,17.40
2022-10-26T10:16:13.813Z,17.70
2022-10-26T10:18:43.234Z,17.90
2022-10-26T10:21:14.230Z,18.00
2022-10-26T10:23:51.999Z,18.00
2022-10-26T10:26:21.923Z,18.10
2022-10-26T10:28:59.308Z,18.20
2022-10-26T10:31:32.024Z,18.30
2022-10-26T10:34:00.788Z,18.50
2022-10-26T10:36:31.757Z,18.60
2022-10-26T10:39:00.921Z,18.90
2022-10-26T10:41:36.416Z,19.20
2022-10-26T10:44:09.019Z,19.30
2022-10-26T10:46:38.776Z,19.30
2022-10-26T10:49:17.644Z,19.40
2022-10-26T10:51:46.270Z,19.20
2022-10-26T10:54:24.086Z,19.00
2022-10-26T10:56:58.699Z,19.40
2022-10-26T10:59:39.311Z,19.50
2022-10-26T11:02:34.702Z,19.50
2022-10-26T11:05:24.759Z,19.40
2022-10-26T11:07:59.203Z,19.50
2022-10-26T11:10:31.297Z,19.50
2022-10-26T11:13:04.249Z,19.60
2022-10-26T11:15:36.969Z,19.70
2022-10-26T11:18:10.767Z,20.30
2022-10-26T11:20:44.188Z,20.70
2022-10-26T11:23:20.613Z,20.50
2022-10-26T11:25:54.373Z,20.80
2022-10-26T11:28:33.797Z,20.50
2022-10-26T11:31:07.254Z,19.70
2022-10-26T11:33:41.722Z,19.40
2022-10-26T11:36:17.231Z,19.50
2022-10-26T11:38:57.161Z,19.40
2022-10-26T11:41:31.574Z,19.20
2022-10-26T11:44:08.554Z,19.30
2022-10-26T11:46:40.942Z,19.40
2022-10-26T11:49:16.505Z,18.90
2022-10-26T11:51:51.803Z,19.10
2022-10-26T11:54:25.519Z,19.20
2022-10-26T11:56:56.500Z,19.40
2022-10-26T11:59:32.295Z,19.50
2022-10-26T12:02:20.371Z,19.50
2022-10-26T12:04:53.180Z,19.50
2022-10-26T12:07:28.142Z,19.50
2022-10-26T12:09:58.494Z,19.60
2022-10-26T12:12:37.355Z,19.70
2022-10-26T12:15:20.066Z,19.70
2022-10-26T12:17:53.575Z,19.80
2022-10-26T12:20:53.978Z,19.80
2022-10-26T12:23:40.444Z,19.80
2022-10-26T12:26:39.976Z,19.80
2022-10-26T12:29:30.766Z,19.60
2022-10-26T12:32:00.772Z,19.40
2022-10-26T12:35:03.625Z,19.50
2022-10-26T12:37:37.107Z,19.50
2022-10-26T12:40:40.561Z,19.70
2022-10-26T12:43:34.907Z,19.90
2022-10-26T12:46:43.423Z,20.00
2022-10-26T12:49:59.258Z,19.80
2022-10-26T12:52:44.766Z,20.00
2022-10-26T12:55:43.302Z,20.20
2022-10-26T12:58:42.613Z,20.40
2022-10-26T13:01:48.394Z,20.00
2022-10-26T13:04:27.334Z,20.10
2022-10-26T13:07:17.761Z,20.40
2022-10-26T13:10:02.426Z,20.60
2022-10-26T13:12:40.004Z,20.70
2022-10-26T13:15:22.645Z,20.90
2022-10-26T13:17:58.324Z,21.00
2022-10-26T13:20:27.314Z,21.00
2022-10-26T13:22:56.142Z,20.90
2022-10-26T13:25:29.099Z,20.80
2022-10-26T13:28:07.273Z,20.80
2022-10-26T13:30:49.434Z,20.70
2022-10-26T13:33:36.386Z,20.60
2022-10-26T13:36:16.862Z,20.60
2022-10-26T13:38:47.857Z,20.60
2022-10-26T13:41:33.085Z,20.60
2022-10-26T13:44:06.625Z,20.90
2022-10-26T13:46:42.650Z,20.90
2022-10-26T13:49:22.890Z,20.90
2022-10-26T13:51:53.113Z,20.90
2022-10-26T13:54:28.244Z,20.60
2022-10-26T13:57:12.039Z,20.40
2022-10-26T13:59:43.907Z,20.20
2022-10-26T14:02:23.568Z,20.10
2022-10-26T14:04:55.509Z,20.00
2022-10-26T14:07:27.607Z,19.80
2022-10-26T14:09:57.745Z,19.80
2022-10-26T14:12:29.601Z,19.90
2022-10-26T14:15:04.975Z,19.90
2022-10-26T14:17:34.167Z,19.80
2022-10-26T14:20:04.248Z,19.90
2022-10-26T14:22:32.604Z,19.90
2022-10-26T14:25:02.399Z,19.90
2022-10-26T14:27:39.141Z,19.90
2022-10-26T14:30:23.664Z,20.00
2022-10-26T14:32:53.069Z,19.90
2022-10-26T14:35:24.978Z,19.90
2022-10-26T14:37:55.948Z,19.90
2022-10-26T14:40:29.149Z,19.80
2022-10-26T14:43:00.827Z,19.70
2022-10-26T14:45:49.155Z,19.70
2022-10-26T14:48:29.975Z,19.70
2022-10-26T14:51:06.777Z,19.60
2022-10-26T14:53:38.490Z,19.60
2022-10-26T14:56:19.178Z,19.60
2022-10-26T14:58:49.129Z,19.70
2022-10-26T15:01:31.856Z,19.80
2022-10-26T15:04:05.443Z,19.80
2022-10-26T15:06:40.293Z,19.70
2022-10-26T15:09:29.287Z,19.60
2022-10-26T15:11:57.701Z,19.60
2022-10-26T15:14:27.820Z,19.70
2022-10-26T15:16:59.301Z,19.70
2022-10-26T15:19:29.743Z,19.70
2022-10-26T15:21:58.412Z,19.70
2022-10-26T15:24:37.413Z,19.70
2022-10-26T15:27:14.855Z,19.60
2022-10-26T15:29:46.620Z,19.50
2022-10-26T15:32:28.198Z,19.60
2022-10-26T15:35:20.235Z,19.50
2022-10-26T15:37:49.058Z,19.50
2022-10-26T15:40:17.875Z,19.50
2022-10-26T15:42:49.167Z,19.40
2022-10-26T15:45:22.201Z,19.30
2022-10-26T15:47:53.093Z,19.20
2022-10-26T15:50:23.443Z,19.10
2022-10-26T15:52:56.113Z,19.10
2022-10-26T15:55:24.409Z,19.10
2022-10-26T15:57:53.069Z,19.10
2022-10-26T16:00:23.239Z,19.00
2022-10-26T16:02:51.543Z,18.90
2022-10-26T16:05:19.742Z,18.80
2022-10-26T16:07:49.557Z,18.80
2022-10-26T16:10:21.611Z,18.70
2022-10-26T16:12:50.642Z,18.60
2022-10-26T16:15:21.011Z,18.60
2022-10-26T16:17:51.235Z,18.50
2022-10-26T16:20:22.773Z,18.50
2022-10-26T16:22:53.392Z,18.40
2022-10-26T16:25:24.851Z,18.40
2022-10-26T16:27:55.391Z,18.40
2022-10-26T16:30:26.984Z,18.30
2022-10-26T16:32:59.204Z,18.30
2022-10-26T16:35:27.774Z,18.30
2022-10-26T16:37:56.093Z,18.20
2022-10-26T16:40:24.294Z,18.20
2022-10-26T16:42:52.839Z,18.20
2022-10-26T16:45:21.957Z,18.20
2022-10-26T16:47:50.575Z,18.10
2022-10-26T16:50:22.133Z,18.10
2022-10-26T16:52:50.752Z,18.10
2022-10-26T16:55:24.343Z,18.10
2022-10-26T16:57:52.788Z,18.10
2022-10-26T17:00:21.375Z,18.10
2022-10-26T17:02:49.654Z,18.10
2022-10-26T17:05:19.727Z,18.10
2022-10-26T17:07:48.843Z,18.10
2022-10-26T17:10:17.379Z,18.00
2022-10-26T17:12:45.601Z,18.00
2022-10-26T17:15:17.254Z,18.00
2022-10-26T17:17:49.264Z,17.90
2022-10-26T17:20:18.360Z,17.90
2022-10-26T17:22:48.202Z,17.90
2022-10-26T17:25:16.664Z,17.90
2022-10-26T17:27:46.751Z,17.90
2022-10-26T17:30:16.299Z,17.90
2022-10-26T17:32:44.529Z,17.80
2022-10-26T17:35:13.351Z,17.80
2022-10-26T17:37:42.486Z,17.70
2022-10-26T17:40:13.049Z,17.70
2022-10-26T17:42:41.805Z,17.70
2022-10-26T17:45:10.869Z,17.70
2022-10-26T17:47:39.140Z,17.70
2022-10-26T17:50:08.451Z,17.70
2022-10-26T17:52:36.979Z,17.70
2022-10-26T17:55:06.022Z,17.60
2022-10-26T17:57:35.460Z,17.60
2022-10-26T18:00:04.157Z,17.60
2022-10-26T18:02:40.650Z,17.50
2022-10-26T18:05:09.822Z,17.50
2022-10-26T18:07:38.369Z,17.50
2022-10-26T18:10:13.940Z,17.50
2022-10-26T18:12:55.496Z,17.50
2022-10-26T18:15:24.761Z,17.60
2022-10-26T18:17:56.864Z,17.60
2022-10-26T18:20:26.626Z,17.60
2022-10-26T18:22:54.969Z,17.50
2022-10-26T18:25:24.088Z,17.50
2022-10-26T18:27:52.152Z,17.40
2022-10-26T18:30:21.764Z,17.40
2022-10-26T18:32:50.981Z,17.30
2022-10-26T18:35:19.978Z,17.30
2022-10-26T18:37:48.448Z,17.20
2022-10-26T18:40:16.913Z,17.20
2022-10-26T18:42:44.970Z,17.20
2022-10-26T18:45:13.112Z,17.20
2022-10-26T18:47:42.594Z,17.20
2022-10-26T18:50:11.084Z,17.20
2022-10-26T18:52:39.223Z,17.20
2022-10-26T18:55:08.862Z,17.30
2022-10-26T18:57:38.554Z,17.30
2022-10-26T19:00:07.740Z,17.30
2022-10-26T19:02:35.927Z,17.20
2022-10-26T19:05:06.381Z,17.20
2022-10-26T19:07:34.840Z,17.20
2022-10-26T19:10:03.047Z,17.20
2022-10-26T19:12:31.181Z,17.20
2022-10-26T19:15:00.595Z,17.20
2022-10-26T19:17:28.873Z,17.10
2022-10-26T19:19:57.315Z,17.10
2022-10-26T19:22:27.191Z,17.10
2022-10-26T19:24:55.770Z,17.10
2022-10-26T19:27:30.011Z,17.20
2022-10-26T19:30:02.827Z,17.20
2022-10-26T19:32:31.407Z,17.20
2022-10-26T19:34:59.723Z,17.20
2022-10-26T19:37:30.671Z,17.10
2022-10-26T19:39:59.768Z,17.10
2022-10-26T19:42:28.157Z,17.00
2022-10-26T19:44:56.600Z,17.00
2022-10-26T19:47:24.981Z,17.10
2022-10-26T19:49:53.086Z,17.00
2022-10-26T19:52:21.231Z,17.00
2022-10-26T19:54:51.307Z,17.00
2022-10-26T19:57:19.563Z,17.00
2022-10-26T19:59:48.973Z,17.00
2022-10-26T20:02:17.569Z,17.00
2022-10-26T20:04:46.284Z,17.00
2022-10-26T20:07:15.669Z,17.00
2022-10-26T20:09:44.100Z,17.00
2022-10-26T20:12:14.436Z,17.00
2022-10-26T20:14:42.734Z,17.10
2022-10-26T20:17:11.130Z,17.00
2022-10-26T20:19:39.405Z,17.00
2022-10-26T20:22:08.421Z,17.10
2022-10-26T20:24:36.618Z,17.10
2022-10-26T20:27:05.004Z,17.10
2022-10-26T20:29:34.548Z,17.00
2022-10-26T20:32:02.671Z,17.00
2022-10-26T20:34:30.919Z,17.00
2022-10-26T20:36:59.016Z,16.90
2022-10-26T20:39:27.748Z,16.90
2022-10-26T20:41:56.447Z,16.90
2022-10-26T20:44:30.143Z,16.80
2022-10-26T20:47:02.511Z,16.80
2022-10-26T20:49:31.161Z,16.80
2022-10-26T20:52:21.928Z,16.70
2022-10-26T20:54:56.563Z,16.70
2022-10-26T20:57:32.610Z,16.70
2022-10-26T21:00:05.127Z,16.70
2022-10-26T21:02:34.819Z,16.80
2022-10-26T21:05:03.100Z,16.80
2022-10-26T21:07:31.677Z,16.80
2022-10-26T21:09:59.830Z,16.80
2022-10-26T21:12:36.745Z,16.70
2022-10-26T21:15:06.106Z,16.60
2022-10-26T21:17:35.516Z,16.60
2022-10-26T21:20:04.081Z,16.70
2022-10-26T21:22:32.215Z,16.70
2022-10-26T21:25:00.618Z,16.80
2022-10-26T21:27:28.877Z,16.70
2022-10-26T21:29:57.175Z,16.70
2022-10-26T21:32:26.021Z,16.70
2022-10-26T21:34:55.531Z,16.60
2022-10-26T21:37:26.194Z,16.50
2022-10-26T21:39:54.713Z,16.50
2022-10-26T21:42:22.881Z,16.40
2022-10-26T21:44:50.964Z,16.30
2022-10-26T21:47:19.543Z,16.30
2022-10-26T21:49:47.641Z,16.20
2022-10-26T21:52:17.095Z,16.00
2022-10-26T21:54:45.261Z,15.90
2022-10-26T21:57:13.392Z,15.80
2022-10-26T21:59:41.585Z,15.70
2022-10-26T22:02:09.836Z,15.50
2022-10-26T22:04:38.616Z,15.40
2022-10-26T22:07:06.916Z,15.30
2022-10-26T22:09:44.918Z,15.20
2022-10-26T22:12:25.836Z,15.10
2022-10-26T22:15:03.945Z,15.00
2022-10-26T22:17:32.539Z,14.90
2022-10-26T22:20:00.824Z,14.90
2022-10-26T22:22:28.832Z,14.80
2022-10-26T22:24:58.342Z,14.80
2022-10-26T22:27:26.749Z,14.80
2022-10-26T22:29:54.861Z,14.70
2022-10-26T22:32:23.104Z,14.70
2022-10-26T22:35:00.297Z,14.60
2022-10-26T22:37:38.822Z,14.60
2022-10-26T22:40:09.421Z,14.50
2022-10-26T22:42:37.583Z,14.40
2022-10-26T22:45:06.733Z,14.30
2022-10-26T22:47:34.796Z,14.30
2022-10-26T22:50:02.889Z,14.20
2022-10-26T22:52:31.220Z,14.20
2022-10-26T22:54:59.348Z,14.10
2022-10-26T22:57:28.822Z,14.10
2022-10-26T22:59:57.005Z,14.10
2022-10-26T23:02:25.175Z,14.00
2022-10-26T23:04:53.237Z,14.00
2022-10-26T23:07:21.425Z,14.00
2022-10-26T23:09:49.734Z,13.90
2022-10-26T23:12:18.151Z,13.90
2022-10-26T23:14:47.608Z,13.90
2022-10-26T23:17:15.832Z,13.90
2022-10-26T23:19:43.885Z,13.80
2022-10-26T23:22:12.357Z,13.80
2022-10-26T23:24:40.497Z,13.80
2022-10-26T23:27:08.642Z,13.80
2022-10-26T23:29:37.078Z,13.80
2022-10-26T23:32:06.752Z,13.70
2022-10-26T23:34:35.431Z,13.60
2022-10-26T23:37:03.684Z,13.60
2022-10-26T23:39:31.779Z,13.50
2022-10-26T23:41:59.796Z,13.50
2022-10-26T23:44:27.845Z,13.50
2022-10-26T23:46:55.929Z,13.50
2022-10-26T23:49:25.649Z,13.40
2022-10-26T23:51:53.717Z,13.40
2022-10-26T23:54:22.036Z,13.40
2022-10-26T23:56:50.110Z,13.40
2022-10-26T23:59:19.488Z,13.40
